Time;durP1;ratioP1;P1;durP2;ratioP2;P2;SDS_P1;SDS_P2;PMS_P1;PMS_P2;Temp;Humidity;BMP_temperature;BMP_pressure;BME280_temperature;BME280_humidity;BME280_pressure;Samples;Min_cycle;Max_cycle;Signal;HPM_P1;HPM_P2
2021/10/05 00:00:17;;;;;;;10.43;4.65;;;;;;;13.65;81.66;101631.48;1691081;83;21069;-83
2021/10/05 00:02:46;;;;;;;8.70;4.12;;;;;;;13.66;81.68;101629.72;1690932;84;21034;-83
2021/10/05 00:05:15;;;;;;;6.47;3.62;;;;;;;13.61;81.73;101627.86;1690033;83;21547;-83
2021/10/05 00:07:41;;;;;;;6.33;4.65;;;;;;;13.59;81.72;101623.39;1676319;84;21011;-83
2021/10/05 00:10:09;;;;;;;8.70;4.55;;;;;;;13.55;81.83;101625.46;1676391;85;21109;-84
2021/10/05 00:12:36;;;;;;;12.15;5.15;;;;;;;13.52;81.93;101625.41;1676320;85;21014;-83
2021/10/05 00:15:06;;;;;;;6.17;4.12;;;;;;;13.49;81.97;101631.48;1675940;84;21057;-83
2021/10/05 00:17:33;;;;;;;6.12;4.12;;;;;;;13.47;82.08;101629.66;1676207;85;21085;-83
2021/10/05 00:20:00;;;;;;;7.95;4.20;;;;;;;13.45;82.08;101628.73;1676129;84;21548;-82
2021/10/05 00:22:27;;;;;;;12.98;4.75;;;;;;;13.44;82.17;101624.28;1676194;85;21089;-82
2021/10/05 00:24:53;;;;;;;9.70;4.20;;;;;;;13.43;82.26;101630.44;1676247;85;21555;-82
2021/10/05 00:27:20;;;;;;;6.92;4.28;;;;;;;13.44;82.36;101613.70;1676207;85;21760;-83
2021/10/05 00:29:47;;;;;;;7.72;4.35;;;;;;;13.45;82.37;101612.42;1676221;84;21018;-83
2021/10/05 00:32:14;;;;;;;9.00;4.92;;;;;;;13.47;82.42;101612.03;1676301;84;21065;-83
2021/10/05 00:34:42;;;;;;;13.60;4.75;;;;;;;13.50;82.51;101612.13;1656062;85;21065;-83
2021/10/05 00:37:09;;;;;;;10.80;4.83;;;;;;;13.56;82.56;101606.99;1676296;84;21117;-83
2021/10/05 00:39:36;;;;;;;10.58;4.78;;;;;;;13.59;82.55;101607.52;1676372;85;21397;-84
2021/10/05 00:42:04;;;;;;;13.60;5.10;;;;;;;13.64;82.63;101608.95;1676293;85;21089;-84
2021/10/05 00:44:35;;;;;;;10.05;5.05;;;;;;;13.69;82.67;101604.25;1676499;84;21065;-84
2021/10/05 00:47:10;;;;;;;8.48;5.20;;;;;;;13.74;82.66;101616.25;1676060;85;21123;-83
2021/10/05 00:49:37;;;;;;;11.83;5.65;;;;;;;13.75;82.67;101622.92;1676351;85;21015;-83
2021/10/05 00:52:05;;;;;;;8.05;4.83;;;;;;;13.79;82.69;101623.49;1647388;87;21849;-83
2021/10/05 00:54:35;;;;;;;9.70;5.22;;;;;;;13.85;82.81;101624.48;1655934;85;21073;-84
2021/10/05 00:57:04;;;;;;;10.35;5.50;;;;;;;13.91;82.78;101621.58;1647058;86;21105;-84
2021/10/05 00:59:33;;;;;;;10.75;5.85;;;;;;;13.95;82.81;101621.23;1676514;85;21170;-84
2021/10/05 01:02:06;;;;;;;6.75;4.78;;;;;;;13.99;82.74;101621.77;1676029;84;21086;-83
2021/10/05 01:04:33;;;;;;;10.60;4.85;;;;;;;14.03;82.79;101617.45;1676380;85;22644;-83
2021/10/05 01:07:03;;;;;;;12.63;5.75;;;;;;;14.05;82.78;101606.02;1675980;83;21069;-83
2021/10/05 01:09:30;;;;;;;8.68;5.80;;;;;;;14.09;82.76;101605.23;1676342;85;21082;-82
2021/10/05 01:11:57;;;;;;;10.13;5.83;;;;;;;14.11;82.66;101610.13;1676227;84;21550;-83
2021/10/05 01:14:26;;;;;;;9.65;5.20;;;;;;;14.11;82.68;101598.66;1655977;85;21090;-82
2021/10/05 01:16:55;;;;;;;7.15;4.85;;;;;;;14.11;82.65;101603.52;1629015;86;21961;-83
2021/10/05 01:19:22;;;;;;;14.83;6.75;;;;;;;14.12;82.64;101594.73;1691039;84;21629;-83
2021/10/05 01:21:49;;;;;;;19.92;10.48;;;;;;;14.12;82.65;101581.93;1691041;83;21355;-83
2021/10/05 01:24:18;;;;;;;20.90;11.18;;;;;;;14.10;82.59;101583.21;1688487;83;21085;-83
2021/10/05 01:26:44;;;;;;;37.15;21.87;;;;;;;14.09;82.73;101574.79;1688623;84;21077;-82
2021/10/05 01:29:16;;;;;;;50.65;29.25;;;;;;;14.09;82.69;101574.79;1688660;85;21806;-82
2021/10/05 01:31:48;;;;;;;65.35;40.08;;;;;;;14.10;82.80;101573.06;1688217;83;21112;-82
2021/10/05 01:34:20;;;;;;;59.67;38.78;;;;;;;14.10;82.86;101562.03;1688255;82;21096;-82
2021/10/05 01:36:47;;;;;;;51.00;31.12;;;;;;;14.12;82.88;101561.64;1676256;85;21493;-82
2021/10/05 01:39:32;;;;;;;42.75;26.45;;;;;;;14.10;82.79;101548.80;1647383;85;21102;-82
2021/10/05 01:42:04;;;;;;;39.70;24.15;;;;;;;14.11;82.86;101543.06;1676286;85;22566;-82
2021/10/05 01:44:32;;;;;;;37.53;21.97;;;;;;;14.12;82.86;101543.55;1635425;86;21061;-83
2021/10/05 01:47:01;;;;;;;31.05;17.98;;;;;;;14.16;82.99;101549.37;1642164;85;21566;-82
2021/10/05 01:49:28;;;;;;;33.18;15.28;;;;;;;14.20;83.00;101549.45;1636702;86;21093;-84
2021/10/05 01:51:54;;;;;;;18.52;11.85;;;;;;;14.21;82.97;101549.05;1657315;86;21160;-83
2021/10/05 01:54:21;;;;;;;20.62;11.28;;;;;;;14.25;82.94;101558.84;1627499;86;22558;-82
2021/10/05 01:56:48;;;;;;;18.80;11.25;;;;;;;14.28;83.04;101561.98;1657346;86;21050;-82
2021/10/05 01:59:15;;;;;;;18.57;10.70;;;;;;;14.32;83.02;101561.19;1657457;86;21101;-82
2021/10/05 02:01:41;;;;;;;16.52;10.72;;;;;;;14.33;83.06;101566.52;1657397;86;21137;-83
2021/10/05 02:04:10;;;;;;;16.25;8.80;;;;;;;14.32;83.01;101560.78;1657119;85;21089;-82
2021/10/05 02:06:37;;;;;;;12.40;9.08;;;;;;;14.34;83.12;101564.77;1668436;85;23025;-83
2021/10/05 02:09:05;;;;;;;16.00;9.65;;;;;;;14.38;83.14;101562.67;1674134;84;21074;-82
2021/10/05 02:11:31;;;;;;;17.55;8.85;;;;;;;14.38;83.13;101550.31;1673930;85;21074;-83
2021/10/05 02:13:58;;;;;;;15.48;8.30;;;;;;;14.41;83.13;101551.23;1643223;86;21038;-83
2021/10/05 02:16:25;;;;;;;12.88;8.68;;;;;;;14.43;83.17;101540.25;1643254;86;21351;-82
2021/10/05 02:18:53;;;;;;;14.10;8.45;;;;;;;14.43;83.12;101537.16;1643008;87;21069;-83
2021/10/05 02:21:20;;;;;;;14.03;8.38;;;;;;;14.43;83.10;101533.19;1674120;85;21121;-84
2021/10/05 02:26:34;;;;;;;15.70;8.65;;;;;;;14.45;83.26;101528.84;1674049;84;21118;-82
2021/10/05 02:29:01;;;;;;;16.35;8.78;;;;;;;14.46;83.21;101535.91;1674115;84;21952;-83
2021/10/05 02:31:27;;;;;;;9.88;7.28;;;;;;;14.44;83.26;101535.42;1674019;84;22417;-82
2021/10/05 02:33:54;;;;;;;11.33;7.90;;;;;;;14.47;83.38;101539.04;1673985;85;21058;-82
2021/10/05 02:36:21;;;;;;;11.50;8.05;;;;;;;14.48;83.35;101542.58;1674010;85;21046;-82
2021/10/05 02:38:48;;;;;;;11.12;8.08;;;;;;;14.46;83.36;101535.91;1674084;84;21070;-83
2021/10/05 02:41:14;;;;;;;14.95;8.78;;;;;;;14.46;83.41;101542.53;1674021;85;21046;-82
2021/10/05 02:43:41;;;;;;;13.62;8.60;;;;;;;14.48;83.44;101546.55;1674051;84;21939;-83
2021/10/05 02:46:11;;;;;;;10.60;7.83;;;;;;;14.51;83.50;101554.58;1643027;86;21080;-82
2021/10/05 02:48:37;;;;;;;12.00;8.38;;;;;;;14.52;83.48;101549.72;1643337;86;21531;-83
2021/10/05 02:51:06;;;;;;;16.30;8.15;;;;;;;14.54;83.49;101544.02;1643409;86;21094;-83
2021/10/05 02:53:32;;;;;;;11.03;7.30;;;;;;;14.55;83.52;101542.73;1674161;85;21086;-82
2021/10/05 02:55:59;;;;;;;10.43;7.42;;;;;;;14.58;83.54;101532.25;1674030;84;21707;-82
2021/10/05 02:58:26;;;;;;;11.63;7.35;;;;;;;14.60;83.58;101530.93;1673965;85;21083;-83
2021/10/05 03:00:57;;;;;;;10.75;7.87;;;;;;;14.62;83.51;101536.27;1653494;85;21118;-83
2021/10/05 03:03:21;;;;;;;13.45;8.15;;;;;;;14.61;83.48;101530.52;1673343;84;21062;-83
2021/10/05 03:05:48;;;;;;;17.30;8.70;;;;;;;14.60;83.56;101528.72;1670793;84;21053;-84
2021/10/05 03:08:15;;;;;;;15.80;8.70;;;;;;;14.61;83.60;101528.75;1659185;85;21859;-82
2021/10/05 03:10:42;;;;;;;17.35;9.68;;;;;;;14.63;83.61;101525.70;1647194;86;21081;-82
2021/10/05 03:13:09;;;;;;;11.22;8.05;;;;;;;14.67;83.69;101531.97;1619410;88;21507;-82
2021/10/05 03:15:35;;;;;;;14.53;8.85;;;;;;;14.72;83.73;101526.34;1647282;87;21085;-83
2021/10/05 03:18:02;;;;;;;13.22;9.95;;;;;;;14.73;83.61;101529.02;1619462;88;21091;-83
2021/10/05 03:20:31;;;;;;;13.53;9.15;;;;;;;14.75;83.62;101528.63;1647383;85;21751;-83
2021/10/05 03:22:58;;;;;;;15.08;9.40;;;;;;;14.76;83.62;101518.91;1647002;86;21066;-83
2021/10/05 03:25:25;;;;;;;15.80;11.88;;;;;;;14.77;83.58;101520.27;1647306;86;21343;-83
2021/10/05 03:27:52;;;;;;;21.35;15.10;;;;;;;14.78;83.61;101520.71;1629195;88;21616;-83
2021/10/05 03:30:18;;;;;;;20.08;15.70;;;;;;;14.78;83.51;101520.71;1629050;87;21124;-82
2021/10/05 03:32:45;;;;;;;25.02;17.80;;;;;;;14.76;83.42;101526.41;1629014;88;22575;-83
2021/10/05 03:35:13;;;;;;;23.57;16.95;;;;;;;14.74;83.40;101520.63;1628727;87;21545;-83
2021/10/05 03:37:39;;;;;;;24.18;18.82;;;;;;;14.74;83.41;101514.01;1629003;88;21094;-83
2021/10/05 03:40:09;;;;;;;30.92;20.45;;;;;;;14.72;83.27;101515.73;1629026;87;21090;-83
2021/10/05 03:42:36;;;;;;;25.55;20.10;;;;;;;14.68;83.29;101516.55;1661705;85;21288;-83
2021/10/05 03:45:04;;;;;;;31.33;20.00;;;;;;;14.66;83.20;101519.56;1666895;85;21768;-83
2021/10/05 03:47:36;;;;;;;31.15;19.92;;;;;;;14.62;83.16;101517.72;1674740;84;21504;-83
2021/10/05 03:50:07;;;;;;;27.02;22.17;;;;;;;14.60;83.14;101516.80;1680457;84;21633;-85
2021/10/05 03:52:34;;;;;;;31.70;21.75;;;;;;;14.55;83.07;101516.24;1658413;86;21105;-83
2021/10/05 03:55:00;;;;;;;28.40;21.93;;;;;;;14.51;83.09;101511.75;1651698;85;21126;-83
2021/10/05 03:57:30;;;;;;;33.38;22.93;;;;;;;14.51;83.12;101512.19;1651585;85;21881;-82
2021/10/05 03:59:58;;;;;;;29.80;22.73;;;;;;;14.48;83.12;101510.34;1641370;86;21125;-82
2021/10/05 04:02:25;;;;;;;30.82;22.07;;;;;;;14.45;83.13;101510.70;1651298;86;21114;-82
2021/10/05 04:04:54;;;;;;;29.85;22.07;;;;;;;14.40;83.02;101498.70;1651283;85;21510;-81
2021/10/05 04:07:21;;;;;;;28.25;21.70;;;;;;;14.33;82.94;101502.08;1651038;85;21109;-81
2021/10/05 04:09:47;;;;;;;31.40;20.65;;;;;;;14.22;82.88;101498.30;1651665;86;21788;-83
2021/10/05 04:12:14;;;;;;;27.85;20.17;;;;;;;14.14;82.89;101489.75;1651721;86;21125;-83
2021/10/05 04:14:44;;;;;;;25.55;19.57;;;;;;;14.06;82.81;101484.73;1651936;85;21113;-82
2021/10/05 04:17:20;;;;;;;27.32;19.00;;;;;;;13.97;82.78;101476.58;1651703;85;21636;-85
2021/10/05 04:19:40;;;;;;;26.10;18.80;;;;;;;13.86;82.62;101475.00;1648175;86;21039;-81
2021/10/05 04:22:07;;;;;;;24.70;18.45;;;;;;;13.76;82.62;101477.87;1651704;85;22493;-83
2021/10/05 04:24:37;;;;;;;23.45;17.85;;;;;;;13.70;82.67;101476.81;1651505;86;21668;-80
2021/10/05 04:27:10;;;;;;;28.17;17.48;;;;;;;13.62;82.67;101485.89;1631228;86;21093;-83
2021/10/05 04:29:39;;;;;;;23.25;18.00;;;;;;;13.57;82.73;101478.27;1651355;85;21130;-83
2021/10/05 04:32:07;;;;;;;21.02;17.50;;;;;;;13.51;82.65;101474.16;1650821;86;21086;-83
2021/10/05 04:34:33;;;;;;;21.87;17.20;;;;;;;13.45;82.70;101480.19;1651591;85;22434;-82
2021/10/05 04:37:01;;;;;;;20.25;17.07;;;;;;;13.39;82.71;101475.64;1651414;85;21082;-82
2021/10/05 04:39:28;;;;;;;22.55;17.48;;;;;;;13.37;82.73;101484.41;1651329;85;21121;-81
2021/10/05 04:41:54;;;;;;;21.27;17.90;;;;;;;13.33;82.69;101478.58;1651341;85;22243;-79
2021/10/05 04:44:24;;;;;;;23.20;17.23;;;;;;;13.30;82.68;101467.87;1651373;85;21184;-81
2021/10/05 04:46:50;;;;;;;23.92;17.60;;;;;;;13.25;82.78;101461.17;1630606;85;22609;-81
2021/10/05 04:49:17;;;;;;;20.45;17.45;;;;;;;13.25;82.81;101469.10;1651228;85;21134;-81
2021/10/05 04:51:43;;;;;;;22.75;18.10;;;;;;;13.21;82.87;101468.13;1651489;85;21718;-81
2021/10/05 04:54:12;;;;;;;23.75;16.87;;;;;;;13.21;82.85;101456.23;1651117;85;21082;-81
2021/10/05 04:56:40;;;;;;;22.17;17.23;;;;;;;13.21;82.85;101449.62;1650768;85;21083;-82
2021/10/05 04:59:07;;;;;;;20.25;15.68;;;;;;;13.21;82.74;101457.55;1651184;85;21754;-82
2021/10/05 05:01:34;;;;;;;19.32;15.40;;;;;;;13.21;82.71;101464.56;1651293;85;21129;-80
2021/10/05 05:04:00;;;;;;;23.50;16.37;;;;;;;13.19;82.64;101469.84;1651289;85;21088;-80
2021/10/05 05:06:29;;;;;;;22.95;16.52;;;;;;;13.21;82.56;101479.10;1650119;85;21110;-80
2021/10/05 05:08:56;;;;;;;22.60;16.40;;;;;;;13.19;82.46;101482.13;1644938;86;21742;-80
2021/10/05 05:11:23;;;;;;;22.77;15.88;;;;;;;13.20;82.48;101482.18;1628197;86;21773;-80
2021/10/05 05:13:50;;;;;;;19.25;15.65;;;;;;;13.21;82.45;101482.66;1673899;85;21114;-80
2021/10/05 05:16:16;;;;;;;23.70;15.53;;;;;;;13.25;82.41;101471.74;1622064;87;21656;-80
2021/10/05 05:18:43;;;;;;;21.75;15.75;;;;;;;13.31;82.34;101474.56;1674115;85;21074;-82
2021/10/05 05:21:10;;;;;;;22.50;15.72;;;;;;;13.35;82.17;101478.19;1640897;86;21075;-80
2021/10/05 05:23:37;;;;;;;19.75;15.03;;;;;;;13.39;82.17;101473.00;1673794;85;21753;-80
2021/10/05 05:26:03;;;;;;;20.00;15.18;;;;;;;13.47;82.06;101485.52;1640731;86;21083;-81
2021/10/05 05:28:30;;;;;;;23.77;15.15;;;;;;;13.49;81.97;101470.59;1673655;84;21110;-81
2021/10/05 05:30:57;;;;;;;24.87;16.02;;;;;;;13.57;82.11;101471.25;1673894;85;21090;-81
2021/10/05 05:33:24;;;;;;;20.55;15.25;;;;;;;13.64;81.86;101474.92;1641052;86;21000;-81
2021/10/05 05:35:51;;;;;;;24.23;16.48;;;;;;;13.68;81.76;101475.89;1673984;85;21835;-81
2021/10/05 05:38:18;;;;;;;19.95;15.40;;;;;;;13.70;81.58;101475.09;1640870;87;21044;-81
2021/10/05 05:40:45;;;;;;;19.85;15.23;;;;;;;13.70;81.40;101476.81;1674064;84;21659;-81
2021/10/05 05:43:12;;;;;;;21.55;16.35;;;;;;;13.71;81.36;101478.62;1640742;87;21245;-80
2021/10/05 05:45:38;;;;;;;21.55;15.88;;;;;;;13.72;81.29;101464.11;1673807;84;21106;-80
2021/10/05 05:48:05;;;;;;;21.30;16.37;;;;;;;13.72;81.15;101460.14;1640821;87;21733;-80
2021/10/05 05:50:32;;;;;;;20.92;16.32;;;;;;;13.72;81.10;101457.90;1673743;84;21094;-81
2021/10/05 05:52:59;;;;;;;20.23;15.55;;;;;;;13.69;80.95;101456.09;1640801;87;21064;-80
2021/10/05 05:55:25;;;;;;;28.60;17.17;;;;;;;13.68;80.90;101456.05;1673695;84;21106;-80
2021/10/05 05:57:52;;;;;;;26.33;17.10;;;;;;;13.65;80.89;101453.34;1673864;85;21608;-80
2021/10/05 06:00:19;;;;;;;23.85;17.07;;;;;;;13.66;80.95;101451.16;1640663;87;21210;-81
2021/10/05 06:02:46;;;;;;;21.33;16.67;;;;;;;13.66;80.95;101452.47;1673647;85;21158;-81
2021/10/05 06:05:13;;;;;;;23.02;16.23;;;;;;;13.65;80.76;101455.56;1640713;86;21064;-81
2021/10/05 06:07:39;;;;;;;25.65;16.12;;;;;;;13.65;80.74;101467.90;1673583;84;21087;-81
2021/10/05 06:10:08;;;;;;;23.95;15.93;;;;;;;13.65;80.66;101462.61;1673540;85;21593;-81
2021/10/05 06:12:41;;;;;;;24.63;16.05;;;;;;;13.66;80.68;101462.62;1673661;85;22390;-81
2021/10/05 06:15:12;;;;;;;24.90;18.25;;;;;;;13.67;80.54;101452.52;1673558;85;21094;-81
2021/10/05 06:17:40;;;;;;;25.23;17.85;;;;;;;13.65;80.44;101448.06;1640940;86;21075;-81
2021/10/05 06:20:09;;;;;;;22.70;17.45;;;;;;;13.63;80.43;101440.08;1673883;85;21098;-81
2021/10/05 06:22:36;;;;;;;23.32;16.60;;;;;;;13.65;80.39;101442.77;1640844;87;21577;-81
2021/10/05 06:25:08;;;;;;;24.90;16.10;;;;;;;13.65;80.31;101446.73;1673967;84;22467;-81
2021/10/05 06:27:35;;;;;;;24.32;17.00;;;;;;;13.63;80.26;101450.66;1640916;87;21052;-81
2021/10/05 06:30:04;;;;;;;23.95;16.30;;;;;;;13.66;80.35;101444.53;1673874;84;21094;-81
2021/10/05 06:32:31;;;;;;;27.48;16.85;;;;;;;13.70;80.35;101435.41;1673708;85;21666;-81
2021/10/05 06:34:58;;;;;;;23.62;17.67;;;;;;;13.74;80.25;101446.92;1640771;87;21079;-81
2021/10/05 06:37:24;;;;;;;24.18;16.40;;;;;;;13.80;80.27;101440.03;1673694;84;22621;-81
2021/10/05 06:39:51;;;;;;;36.30;17.90;;;;;;;13.87;80.20;101439.75;1640694;86;21036;-81
2021/10/05 06:42:18;;;;;;;25.88;16.05;;;;;;;13.96;80.19;101438.64;1673653;85;21561;-81
2021/10/05 06:44:45;;;;;;;25.25;16.23;;;;;;;14.06;80.04;101439.73;1622014;87;21448;-81
2021/10/05 06:47:11;;;;;;;21.55;16.17;;;;;;;14.22;80.19;101427.69;1673763;84;21067;-81
2021/10/05 06:49:38;;;;;;;21.77;15.78;;;;;;;14.47;80.23;101425.54;1640743;87;21717;-81
2021/10/05 06:52:08;;;;;;;22.02;16.02;;;;;;;14.66;79.85;101420.20;1673640;85;21611;-81
2021/10/05 06:54:36;;;;;;;22.37;16.20;;;;;;;14.79;79.41;101416.94;1640061;87;21075;-81
2021/10/05 06:57:04;;;;;;;24.87;16.35;;;;;;;14.91;79.21;101416.27;1673553;85;21015;-81
2021/10/05 06:59:31;;;;;;;18.75;15.15;;;;;;;15.05;79.06;101412.52;1673645;85;21086;-81
2021/10/05 07:01:57;;;;;;;20.60;16.10;;;;;;;15.24;79.01;101400.05;1640598;86;22572;-81
2021/10/05 07:04:24;;;;;;;26.90;15.90;;;;;;;15.41;78.66;101396.73;1673357;84;21552;-81
2021/10/05 07:06:51;;;;;;;23.80;15.38;;;;;;;15.58;78.41;101388.63;1639758;86;21051;-81
2021/10/05 07:09:18;;;;;;;26.25;16.75;;;;;;;15.63;77.79;101381.59;1628269;88;21102;-81
2021/10/05 07:11:46;;;;;;;22.67;15.95;;;;;;;15.69;77.62;101387.42;1628794;87;21282;-81
2021/10/05 07:14:13;;;;;;;21.93;15.60;;;;;;;15.79;77.46;101390.72;1628689;87;21799;-81
2021/10/05 07:16:42;;;;;;;21.42;15.60;;;;;;;15.95;77.40;101389.14;1628336;86;21142;-81
2021/10/05 07:19:09;;;;;;;20.02;16.07;;;;;;;16.19;77.42;101388.56;1628521;87;21102;-81
2021/10/05 07:21:36;;;;;;;23.62;17.00;;;;;;;16.42;77.01;101392.84;1628322;88;21102;-81
2021/10/05 07:24:03;;;;;;;20.17;16.15;;;;;;;16.55;76.38;101388.97;1635644;87;21101;-81
2021/10/05 07:26:30;;;;;;;23.75;16.20;;;;;;;16.64;75.94;101381.09;1601189;88;22174;-81
2021/10/05 07:28:56;;;;;;;23.10;15.43;;;;;;;16.63;75.25;101383.28;1661176;86;21100;-82
2021/10/05 07:31:23;;;;;;;21.12;16.65;;;;;;;16.57;75.10;101392.53;1661253;86;21092;-81
2021/10/05 07:33:50;;;;;;;20.30;16.12;;;;;;;16.54;74.87;101393.85;1628481;87;21037;-82
2021/10/05 07:36:18;;;;;;;20.72;15.60;;;;;;;16.48;74.73;101390.25;1628473;87;21102;-81
2021/10/05 07:38:45;;;;;;;22.82;16.45;;;;;;;16.48;74.79;101388.03;1628457;87;21841;-82
2021/10/05 07:41:12;;;;;;;24.25;15.90;;;;;;;16.50;74.82;101381.85;1628389;86;21612;-82
2021/10/05 07:43:39;;;;;;;23.77;17.32;;;;;;;16.54;74.71;101380.56;1628616;87;21122;-82
2021/10/05 07:46:05;;;;;;;24.12;17.60;;;;;;;16.54;74.54;101370.81;1635809;86;21141;-82
2021/10/05 07:48:32;;;;;;;24.92;17.07;;;;;;;16.54;74.27;101371.27;1612832;87;21580;-82
2021/10/05 07:50:59;;;;;;;25.30;16.85;;;;;;;16.53;74.27;101367.69;1612956;87;22583;-82
2021/10/05 07:53:25;;;;;;;24.95;16.55;;;;;;;16.54;74.19;101367.28;1612792;87;21059;-82
2021/10/05 07:55:52;;;;;;;22.73;17.07;;;;;;;16.62;74.18;101371.77;1612926;87;21029;-82
2021/10/05 07:58:21;;;;;;;27.93;17.82;;;;;;;16.73;74.13;101365.69;1612798;87;21067;-82
2021/10/05 08:00:48;;;;;;;24.35;18.42;;;;;;;16.82;74.03;101370.69;1612799;88;21154;-81
2021/10/05 08:03:14;;;;;;;31.00;19.90;;;;;;;16.99;73.90;101356.20;1612672;87;21775;-82
2021/10/05 08:05:41;;;;;;;25.10;19.55;;;;;;;17.12;73.68;101364.27;1612641;87;21055;-82
2021/10/05 08:08:08;;;;;;;28.17;22.73;;;;;;;17.23;73.43;101361.25;1611920;87;21115;-82
2021/10/05 08:10:36;;;;;;;28.45;22.67;;;;;;;17.34;73.10;101360.88;1610910;87;21090;-82
2021/10/05 08:13:03;;;;;;;29.30;21.23;;;;;;;17.48;72.84;101353.01;1611236;87;21111;-82
2021/10/05 08:15:29;;;;;;;27.17;20.35;;;;;;;17.60;72.67;101346.86;1611334;89;21841;-82
2021/10/05 08:17:56;;;;;;;29.90;19.77;;;;;;;17.88;72.75;101343.92;1611374;89;21079;-82
2021/10/05 08:20:23;;;;;;;24.02;18.40;;;;;;;18.14;72.29;101339.15;1611397;88;21070;-81
2021/10/05 08:22:50;;;;;;;28.00;18.77;;;;;;;18.23;71.74;101335.19;1611338;89;21066;-81
2021/10/05 08:25:17;;;;;;;23.85;20.00;;;;;;;18.29;71.62;101329.86;1611288;87;22227;-81
2021/10/05 08:27:45;;;;;;;24.27;17.65;;;;;;;18.36;71.24;101327.66;1611322;87;22549;-81
2021/10/05 08:30:12;;;;;;;24.25;18.17;;;;;;;18.41;71.00;101328.98;1611351;88;21066;-81
2021/10/05 08:32:42;;;;;;;27.42;18.60;;;;;;;18.51;70.89;101328.13;1611059;87;21094;-81
2021/10/05 08:35:10;;;;;;;31.23;18.70;;;;;;;18.65;70.71;101326.80;1611502;87;21086;-81
2021/10/05 08:37:37;;;;;;;24.95;18.07;;;;;;;18.73;70.17;101327.72;1611316;87;21102;-81
2021/10/05 08:40:05;;;;;;;24.30;16.50;;;;;;;18.73;69.94;101326.80;1611350;87;21749;-81
2021/10/05 08:42:32;;;;;;;22.70;16.42;;;;;;;18.69;69.74;101326.36;1611399;87;21078;-81
2021/10/05 08:44:59;;;;;;;25.60;17.85;;;;;;;18.67;69.61;101324.14;1611606;87;21070;-81
2021/10/05 08:47:25;;;;;;;24.82;18.12;;;;;;;18.61;69.57;101320.58;1611733;88;21084;-81
2021/10/05 08:49:52;;;;;;;25.40;17.67;;;;;;;18.62;69.40;101328.16;1611743;87;21040;-82
2021/10/05 08:52:19;;;;;;;27.07;18.00;;;;;;;18.45;69.07;101324.14;1611632;87;21769;-81
2021/10/05 08:54:45;;;;;;;24.25;16.77;;;;;;;18.33;69.00;101323.64;1611642;87;21059;-81
2021/10/05 08:57:12;;;;;;;24.07;16.77;;;;;;;18.15;68.85;101324.92;1611545;87;21083;-81
2021/10/05 08:59:39;;;;;;;27.02;18.90;;;;;;;18.06;69.13;101323.14;1611449;87;21310;-81
2021/10/05 09:02:13;;;;;;;22.10;17.15;;;;;;;18.01;69.23;101322.23;1611521;87;21082;-81
2021/10/05 09:04:42;;;;;;;23.42;18.05;;;;;;;17.94;69.07;101320.42;1611421;87;21767;-81
2021/10/05 09:07:23;;;;;;;26.17;17.35;;;;;;;17.86;69.02;101321.73;1611213;87;21094;-81
2021/10/05 09:09:58;;;;;;;23.35;18.25;;;;;;;17.68;68.88;101314.50;1593224;88;21051;-80
2021/10/05 09:12:30;;;;;;;28.15;18.45;;;;;;;17.45;68.71;101312.61;1611452;89;21098;-80
2021/10/05 09:14:57;;;;;;;27.25;18.25;;;;;;;17.31;68.96;101307.66;1611010;87;21102;-80
2021/10/05 09:17:26;;;;;;;30.02;18.12;;;;;;;17.23;69.11;101302.30;1611049;89;21786;-80
2021/10/05 09:19:54;;;;;;;29.27;17.15;;;;;;;17.09;68.95;101307.50;1611078;87;21111;-80
2021/10/05 09:22:26;;;;;;;28.83;18.10;;;;;;;17.01;69.15;101299.05;1611127;87;21078;-80
2021/10/05 09:24:55;;;;;;;22.27;17.70;;;;;;;16.96;69.38;101289.69;1611237;88;21087;-80
2021/10/05 09:27:22;;;;;;;24.72;18.62;;;;;;;16.94;69.40;101283.91;1611171;88;21142;-80
2021/10/05 09:29:50;;;;;;;27.58;17.10;;;;;;;16.87;69.39;101275.91;1611185;88;21755;-80
2021/10/05 09:32:18;;;;;;;22.27;17.45;;;;;;;16.89;69.63;101266.16;1611217;87;21078;-80
2021/10/05 09:34:57;;;;;;;21.73;17.17;;;;;;;16.92;69.76;101273.27;1611131;87;21135;-80
2021/10/05 09:37:36;;;;;;;25.05;16.32;;;;;;;16.98;69.79;101279.06;1611055;88;21102;-80
2021/10/05 09:40:06;;;;;;;29.07;17.60;;;;;;;17.00;69.68;101274.19;1611258;87;21369;-79
2021/10/05 09:42:41;;;;;;;28.83;18.15;;;;;;;16.99;69.45;101268.89;1611542;87;21841;-80
2021/10/05 09:45:18;;;;;;;22.98;17.00;;;;;;;17.00;69.60;101274.19;1611369;87;21079;-80
2021/10/05 09:47:49;;;;;;;25.20;17.12;;;;;;;17.09;69.71;101276.91;1611525;89;21090;-80
2021/10/05 09:50:21;;;;;;;23.55;17.55;;;;;;;17.24;69.94;101267.27;1611657;88;21495;-80
2021/10/05 09:52:50;;;;;;;20.32;16.57;;;;;;;17.41;69.77;101267.36;1611663;87;21522;-82
2021/10/05 09:55:20;;;;;;;27.35;17.35;;;;;;;17.51;69.55;101257.19;1611588;87;21771;-80
2021/10/05 09:57:47;;;;;;;23.02;17.35;;;;;;;17.62;69.57;101248.80;1611691;89;21087;-80
2021/10/05 10:00:14;;;;;;;24.95;17.48;;;;;;;17.73;69.37;101234.20;1611412;87;21115;-80
2021/10/05 10:02:42;;;;;;;25.77;16.37;;;;;;;17.76;68.89;101227.58;1611671;87;21344;-80
2021/10/05 10:05:14;;;;;;;26.20;17.52;;;;;;;17.75;68.78;101214.25;1611639;87;21551;-80
2021/10/05 10:07:43;;;;;;;20.00;16.55;;;;;;;17.78;68.88;101208.50;1611710;87;21784;-80
2021/10/05 10:10:14;;;;;;;23.67;16.42;;;;;;;17.71;68.50;101197.38;1611295;88;21059;-80
2021/10/05 10:12:55;;;;;;;22.48;16.67;;;;;;;17.64;68.64;101192.50;1592710;88;21598;-80
2021/10/05 10:15:27;;;;;;;23.27;15.98;;;;;;;17.63;68.70;101188.04;1611504;88;21101;-80
2021/10/05 10:18:10;;;;;;;21.85;16.42;;;;;;;17.65;68.71;101190.27;1611642;87;21097;-80
2021/10/05 10:20:40;;;;;;;20.68;15.65;;;;;;;17.69;68.72;101193.37;1611633;87;21779;-80
2021/10/05 10:23:21;;;;;;;24.82;17.62;;;;;;;17.77;68.91;101193.84;1611627;87;21111;-80
2021/10/05 10:26:01;;;;;;;22.67;15.70;;;;;;;17.88;68.69;101196.12;1611723;88;21232;-80
2021/10/05 10:28:37;;;;;;;25.60;16.50;;;;;;;18.04;68.76;101191.72;1611422;88;21036;-80
2021/10/05 10:31:08;;;;;;;26.80;15.20;;;;;;;18.22;68.81;101189.05;1611637;88;21110;-80
2021/10/05 10:33:50;;;;;;;26.00;16.10;;;;;;;18.39;68.72;101180.17;1611116;88;21967;-80
2021/10/05 10:36:41;;;;;;;19.32;15.93;;;;;;;18.49;68.26;101173.97;1611399;87;21070;-81
2021/10/05 10:39:17;;;;;;;22.15;15.28;;;;;;;18.50;67.79;101175.72;1610082;87;21102;-81
2021/10/05 10:41:57;;;;;;;20.52;14.73;;;;;;;18.45;67.58;101176.20;1611282;88;21110;-81
2021/10/05 10:44:36;;;;;;;18.52;14.28;;;;;;;18.50;67.80;101170.84;1611326;88;21102;-81
2021/10/05 10:47:13;;;;;;;22.87;14.93;;;;;;;18.56;67.71;101170.41;1611098;87;21635;-81
2021/10/05 10:49:41;;;;;;;21.60;14.93;;;;;;;18.56;67.17;101176.16;1610923;88;21275;-81
2021/10/05 10:52:08;;;;;;;19.70;14.23;;;;;;;18.50;66.97;101176.17;1610992;87;21063;-81
2021/10/05 10:54:34;;;;;;;21.05;14.58;;;;;;;18.48;66.96;101180.62;1610840;87;21075;-81
2021/10/05 10:57:06;;;;;;;19.55;13.90;;;;;;;18.48;66.86;101172.63;1610910;88;21083;-81
2021/10/05 10:59:33;;;;;;;20.85;15.00;;;;;;;18.48;66.96;101161.52;1611087;87;21765;-81
2021/10/05 11:02:05;;;;;;;19.02;14.40;;;;;;;18.52;66.98;101159.28;1610912;87;21126;-81
2021/10/05 11:04:32;;;;;;;24.95;16.32;;;;;;;18.52;66.79;101168.61;1611052;87;21676;-81
2021/10/05 11:06:59;;;;;;;21.95;12.70;;;;;;;18.47;66.46;101158.42;1610977;87;21051;-81
2021/10/05 11:09:31;;;;;;;18.90;13.20;;;;;;;18.48;66.72;101154.84;1618684;88;21154;-81
2021/10/05 11:11:59;;;;;;;15.08;12.70;;;;;;;18.51;66.59;101156.19;1625036;88;21736;-81
2021/10/05 11:14:33;;;;;;;25.00;13.98;;;;;;;18.53;66.56;101147.74;1624769;87;21114;-81
2021/10/05 11:17:02;;;;;;;19.30;13.83;;;;;;;18.53;66.35;101133.53;1625135;88;21082;-81
2021/10/05 11:19:37;;;;;;;17.30;13.22;;;;;;;18.53;66.15;101126.87;1625233;87;21095;-81